sensor_id;sensor_type;location;lat;lon;timestamp;temperature;humidity
18781;DHT22;9519;51.890;8.970;2023-07-31T00:02:45;16.60;99.90
18781;DHT22;9519;51.890;8.970;2023-07-31T00:07:49;16.60;99.90
18781;DHT22;9519;51.890;8.970;2023-07-31T00:12:51;16.60;99.90
18781;DHT22;9519;51.890;8.970;2023-07-31T00:17:53;16.60;99.90
18781;DHT22;9519;51.890;8.970;2023-07-31T00:22:56;16.60;99.90
18781;DHT22;9519;51.890;8.970;2023-07-31T00:27:58;16.60;99.90
18781;DHT22;9519;51.890;8.970;2023-07-31T00:33:00;16.50;99.90
18781;DHT22;9519;51.890;8.970;2023-07-31T00:38:04;16.50;99.90
18781;DHT22;9519;51.890;8.970;2023-07-31T00:43:06;16.50;99.90
18781;DHT22;9519;51.890;8.970;2023-07-31T00:48:08;16.50;99.90
18781;DHT22;9519;51.890;8.970;2023-07-31T00:53:11;16.50;99.90
18781;DHT22;9519;51.890;8.970;2023-07-31T00:58:14;16.50;99.90
18781;DHT22;9519;51.890;8.970;2023-07-31T01:03:16;16.50;99.90
18781;DHT22;9519;51.890;8.970;2023-07-31T01:08:25;16.50;99.90
18781;DHT22;9519;51.890;8.970;2023-07-31T01:13:34;16.50;99.90
18781;DHT22;9519;51.890;8.970;2023-07-31T01:18:37;16.50;99.90
18781;DHT22;9519;51.890;8.970;2023-07-31T01:23:56;16.50;99.90
18781;DHT22;9519;51.890;8.970;2023-07-31T01:29:25;16.50;99.90
18781;DHT22;9519;51.890;8.970;2023-07-31T01:34:35;16.60;99.90
18781;DHT22;9519;51.890;8.970;2023-07-31T01:39:38;16.60;99.90
18781;DHT22;9519;51.890;8.970;2023-07-31T01:44:41;16.50;99.90
18781;DHT22;9519;51.890;8.970;2023-07-31T01:49:43;16.40;99.90
18781;DHT22;9519;51.890;8.970;2023-07-31T01:54:46;16.40;99.90
18781;DHT22;9519;51.890;8.970;2023-07-31T01:59:49;16.30;99.90
18781;DHT22;9519;51.890;8.970;2023-07-31T02:04:53;16.20;99.90
18781;DHT22;9519;51.890;8.970;2023-07-31T02:09:55;16.10;99.90
18781;DHT22;9519;51.890;8.970;2023-07-31T02:14:59;16.00;99.90
18781;DHT22;9519;51.890;8.970;2023-07-31T02:20:01;15.90;99.90
18781;DHT22;9519;51.890;8.970;2023-07-31T02:25:04;15.80;99.90
18781;DHT22;9519;51.890;8.970;2023-07-31T02:30:09;15.80;99.90
18781;DHT22;9519;51.890;8.970;2023-07-31T02:35:12;15.80;99.90
18781;DHT22;9519;51.890;8.970;2023-07-31T02:40:16;15.70;99.90
18781;DHT22;9519;51.890;8.970;2023-07-31T02:45:21;15.70;99.90
18781;DHT22;9519;51.890;8.970;2023-07-31T02:50:23;15.70;99.90
18781;DHT22;9519;51.890;8.970;2023-07-31T02:55:25;15.70;99.90
18781;DHT22;9519;51.890;8.970;2023-07-31T03:00:28;15.70;99.90
18781;DHT22;9519;51.890;8.970;2023-07-31T03:05:30;15.70;99.90
18781;DHT22;9519;51.890;8.970;2023-07-31T03:10:32;15.80;99.90
18781;DHT22;9519;51.890;8.970;2023-07-31T03:15:36;15.80;99.90
18781;DHT22;9519;51.890;8.970;2023-07-31T03:20:42;15.80;99.90
18781;DHT22;9519;51.890;8.970;2023-07-31T03:25:55;15.80;99.90
18781;DHT22;9519;51.890;8.970;2023-07-31T03:31:00;15.80;99.90
18781;DHT22;9519;51.890;8.970;2023-07-31T03:36:02;15.90;99.90
18781;DHT22;9519;51.890;8.970;2023-07-31T03:41:05;15.90;99.90
18781;DHT22;9519;51.890;8.970;2023-07-31T03:46:08;16.00;99.90
18781;DHT22;9519;51.890;8.970;2023-07-31T03:51:10;16.00;99.90
18781;DHT22;9519;51.890;8.970;2023-07-31T03:56:13;16.10;99.90
18781;DHT22;9519;51.890;8.970;2023-07-31T04:01:16;16.20;99.90
18781;DHT22;9519;51.890;8.970;2023-07-31T04:06:20;16.20;99.90
18781;DHT22;9519;51.890;8.970;2023-07-31T04:11:22;16.20;99.90
18781;DHT22;9519;51.890;8.970;2023-07-31T04:16:25;16.20;99.90
18781;DHT22;9519;51.890;8.970;2023-07-31T04:21:27;16.30;99.90
18781;DHT22;9519;51.890;8.970;2023-07-31T04:26:29;16.30;99.90
18781;DHT22;9519;51.890;8.970;2023-07-31T04:31:33;16.30;99.90
18781;DHT22;9519;51.890;8.970;2023-07-31T04:36:35;16.30;99.90
18781;DHT22;9519;51.890;8.970;2023-07-31T04:41:38;16.30;99.90
18781;DHT22;9519;51.890;8.970;2023-07-31T04:46:41;16.30;99.90
18781;DHT22;9519;51.890;8.970;2023-07-31T04:51:43;16.30;99.90
18781;DHT22;9519;51.890;8.970;2023-07-31T04:56:45;16.30;99.90
18781;DHT22;9519;51.890;8.970;2023-07-31T05:01:49;16.30;99.90
18781;DHT22;9519;51.890;8.970;2023-07-31T05:06:51;16.30;99.90
18781;DHT22;9519;51.890;8.970;2023-07-31T05:11:53;16.20;99.90
18781;DHT22;9519;51.890;8.970;2023-07-31T05:16:56;16.20;99.90
18781;DHT22;9519;51.890;8.970;2023-07-31T05:21:59;16.20;99.90
18781;DHT22;9519;51.890;8.970;2023-07-31T05:27:01;16.20;99.90
18781;DHT22;9519;51.890;8.970;2023-07-31T05:32:05;16.20;99.90
18781;DHT22;9519;51.890;8.970;2023-07-31T05:37:10;16.20;99.90
18781;DHT22;9519;51.890;8.970;2023-07-31T05:42:12;16.30;99.90
18781;DHT22;9519;51.890;8.970;2023-07-31T05:47:16;16.30;99.90
18781;DHT22;9519;51.890;8.970;2023-07-31T05:52:18;16.40;99.90
18781;DHT22;9519;51.890;8.970;2023-07-31T05:57:20;16.40;99.90
18781;DHT22;9519;51.890;8.970;2023-07-31T06:02:23;16.50;99.90
18781;DHT22;9519;51.890;8.970;2023-07-31T06:07:26;16.50;99.90
18781;DHT22;9519;51.890;8.970;2023-07-31T06:12:28;16.50;99.90
18781;DHT22;9519;51.890;8.970;2023-07-31T06:17:31;16.60;99.90
18781;DHT22;9519;51.890;8.970;2023-07-31T06:22:33;16.60;99.90
18781;DHT22;9519;51.890;8.970;2023-07-31T06:27:35;16.60;99.90
18781;DHT22;9519;51.890;8.970;2023-07-31T06:32:39;16.60;99.90
18781;DHT22;9519;51.890;8.970;2023-07-31T06:37:42;16.70;99.90
18781;DHT22;9519;51.890;8.970;2023-07-31T06:42:44;16.70;99.90
18781;DHT22;9519;51.890;8.970;2023-07-31T06:47:48;16.70;99.90
18781;DHT22;9519;51.890;8.970;2023-07-31T06:52:50;16.80;99.90
18781;DHT22;9519;51.890;8.970;2023-07-31T06:57:53;16.80;99.90
18781;DHT22;9519;51.890;8.970;2023-07-31T07:02:58;16.90;99.90
18781;DHT22;9519;51.890;8.970;2023-07-31T07:08:00;16.90;99.90
18781;DHT22;9519;51.890;8.970;2023-07-31T07:13:02;17.00;99.90
18781;DHT22;9519;51.890;8.970;2023-07-31T07:18:05;17.00;99.90
18781;DHT22;9519;51.890;8.970;2023-07-31T07:23:07;17.00;99.90
18781;DHT22;9519;51.890;8.970;2023-07-31T07:28:10;17.00;99.90
18781;DHT22;9519;51.890;8.970;2023-07-31T07:33:13;17.00;99.90
18781;DHT22;9519;51.890;8.970;2023-07-31T07:38:15;17.00;99.90
18781;DHT22;9519;51.890;8.970;2023-07-31T07:43:19;17.00;99.90
18781;DHT22;9519;51.890;8.970;2023-07-31T07:48:23;16.90;99.90
18781;DHT22;9519;51.890;8.970;2023-07-31T07:53:26;16.80;99.90
18781;DHT22;9519;51.890;8.970;2023-07-31T07:58:28;16.80;99.90
18781;DHT22;9519;51.890;8.970;2023-07-31T08:03:31;16.90;99.90
18781;DHT22;9519;51.890;8.970;2023-07-31T08:08:33;17.00;99.90
18781;DHT22;9519;51.890;8.970;2023-07-31T08:13:38;17.00;99.90
18781;DHT22;9519;51.890;8.970;2023-07-31T08:18:41;17.00;99.90
18781;DHT22;9519;51.890;8.970;2023-07-31T08:23:44;17.00;99.90
18781;DHT22;9519;51.890;8.970;2023-07-31T08:28:46;17.00;99.90
18781;DHT22;9519;51.890;8.970;2023-07-31T08:33:49;17.00;99.90
18781;DHT22;9519;51.890;8.970;2023-07-31T08:38:51;17.00;99.90
18781;DHT22;9519;51.890;8.970;2023-07-31T08:43:55;17.10;99.90
18781;DHT22;9519;51.890;8.970;2023-07-31T08:49:00;17.10;99.90
18781;DHT22;9519;51.890;8.970;2023-07-31T08:54:06;17.20;99.90
18781;DHT22;9519;51.890;8.970;2023-07-31T08:59:09;17.20;99.90
18781;DHT22;9519;51.890;8.970;2023-07-31T09:04:15;17.30;99.90
18781;DHT22;9519;51.890;8.970;2023-07-31T09:09:19;17.40;99.90
18781;DHT22;9519;51.890;8.970;2023-07-31T09:14:21;17.40;99.90
18781;DHT22;9519;51.890;8.970;2023-07-31T09:19:29;17.40;99.90
18781;DHT22;9519;51.890;8.970;2023-07-31T09:24:35;17.50;99.90
18781;DHT22;9519;51.890;8.970;2023-07-31T09:29:37;17.50;99.90
18781;DHT22;9519;51.890;8.970;2023-07-31T09:34:40;17.50;99.90
18781;DHT22;9519;51.890;8.970;2023-07-31T09:39:46;17.60;99.90
18781;DHT22;9519;51.890;8.970;2023-07-31T09:44:49;17.70;99.90
18781;DHT22;9519;51.890;8.970;2023-07-31T09:49:53;17.70;99.90
18781;DHT22;9519;51.890;8.970;2023-07-31T09:54:56;17.80;99.90
18781;DHT22;9519;51.890;8.970;2023-07-31T09:59:59;17.90;99.90
18781;DHT22;9519;51.890;8.970;2023-07-31T10:05:04;18.00;99.90
18781;DHT22;9519;51.890;8.970;2023-07-31T10:10:08;18.10;99.90
18781;DHT22;9519;51.890;8.970;2023-07-31T10:15:11;18.20;99.90
18781;DHT22;9519;51.890;8.970;2023-07-31T10:20:16;18.30;99.90
18781;DHT22;9519;51.890;8.970;2023-07-31T10:25:19;18.40;99.90
18781;DHT22;9519;51.890;8.970;2023-07-31T10:30:26;18.40;99.90
18781;DHT22;9519;51.890;8.970;2023-07-31T10:35:32;18.30;99.90
18781;DHT22;9519;51.890;8.970;2023-07-31T10:40:34;18.40;99.90
18781;DHT22;9519;51.890;8.970;2023-07-31T10:45:39;18.40;99.90
18781;DHT22;9519;51.890;8.970;2023-07-31T10:50:49;18.40;99.90
18781;DHT22;9519;51.890;8.970;2023-07-31T10:55:53;18.40;99.90
18781;DHT22;9519;51.890;8.970;2023-07-31T11:01:01;18.40;99.90
18781;DHT22;9519;51.890;8.970;2023-07-31T11:06:06;18.40;99.90
18781;DHT22;9519;51.890;8.970;2023-07-31T11:11:09;18.40;99.90
18781;DHT22;9519;51.890;8.970;2023-07-31T11:16:13;18.50;99.90
18781;DHT22;9519;51.890;8.970;2023-07-31T11:21:18;18.50;99.90
18781;DHT22;9519;51.890;8.970;2023-07-31T11:26:23;18.50;99.90
18781;DHT22;9519;51.890;8.970;2023-07-31T11:31:25;18.60;99.90
18781;DHT22;9519;51.890;8.970;2023-07-31T11:36:29;18.60;99.90
18781;DHT22;9519;51.890;8.970;2023-07-31T11:41:31;18.50;99.90
18781;DHT22;9519;51.890;8.970;2023-07-31T11:46:33;18.40;99.90
18781;DHT22;9519;51.890;8.970;2023-07-31T11:51:37;18.30;99.90
18781;DHT22;9519;51.890;8.970;2023-07-31T11:56:39;18.30;99.90
18781;DHT22;9519;51.890;8.970;2023-07-31T12:01:42;18.30;99.90
18781;DHT22;9519;51.890;8.970;2023-07-31T12:06:46;18.20;99.90
18781;DHT22;9519;51.890;8.970;2023-07-31T12:11:48;18.30;99.90
18781;DHT22;9519;51.890;8.970;2023-07-31T12:16:53;18.30;99.90
18781;DHT22;9519;51.890;8.970;2023-07-31T12:21:58;18.30;99.90
18781;DHT22;9519;51.890;8.970;2023-07-31T12:27:00;18.30;99.90
18781;DHT22;9519;51.890;8.970;2023-07-31T12:32:20;18.30;99.90
18781;DHT22;9519;51.890;8.970;2023-07-31T12:37:26;18.30;99.90
18781;DHT22;9519;51.890;8.970;2023-07-31T12:42:30;18.30;99.90
18781;DHT22;9519;51.890;8.970;2023-07-31T12:47:32;18.30;99.90
18781;DHT22;9519;51.890;8.970;2023-07-31T12:52:35;18.30;99.90
18781;DHT22;9519;51.890;8.970;2023-07-31T12:57:39;18.20;99.90
18781;DHT22;9519;51.890;8.970;2023-07-31T13:02:41;18.30;99.90
18781;DHT22;9519;51.890;8.970;2023-07-31T13:07:45;18.30;99.90
18781;DHT22;9519;51.890;8.970;2023-07-31T13:12:49;18.30;99.90
18781;DHT22;9519;51.890;8.970;2023-07-31T13:17:51;18.30;99.90
18781;DHT22;9519;51.890;8.970;2023-07-31T13:22:54;18.20;99.90
18781;DHT22;9519;51.890;8.970;2023-07-31T13:27:56;18.20;99.90
18781;DHT22;9519;51.890;8.970;2023-07-31T13:32:58;18.20;99.90
18781;DHT22;9519;51.890;8.970;2023-07-31T13:38:02;18.20;99.90
18781;DHT22;9519;51.890;8.970;2023-07-31T13:43:04;18.20;99.90
18781;DHT22;9519;51.890;8.970;2023-07-31T13:48:06;18.50;99.90
18781;DHT22;9519;51.890;8.970;2023-07-31T13:53:10;18.70;99.90
18781;DHT22;9519;51.890;8.970;2023-07-31T13:58:12;18.90;99.90
18781;DHT22;9519;51.890;8.970;2023-07-31T14:03:14;19.00;99.90
18781;DHT22;9519;51.890;8.970;2023-07-31T14:08:18;19.10;99.90
18781;DHT22;9519;51.890;8.970;2023-07-31T14:13:20;19.20;99.90
18781;DHT22;9519;51.890;8.970;2023-07-31T14:18:22;19.20;99.90
18781;DHT22;9519;51.890;8.970;2023-07-31T14:23:25;19.10;99.90
18781;DHT22;9519;51.890;8.970;2023-07-31T14:28:28;19.10;99.90
18781;DHT22;9519;51.890;8.970;2023-07-31T14:33:30;19.10;99.90
18781;DHT22;9519;51.890;8.970;2023-07-31T14:38:33;19.00;99.90
18781;DHT22;9519;51.890;8.970;2023-07-31T14:43:36;19.00;99.90
18781;DHT22;9519;51.890;8.970;2023-07-31T14:48:38;18.90;99.90
18781;DHT22;9519;51.890;8.970;2023-07-31T14:53:42;18.80;99.90
18781;DHT22;9519;51.890;8.970;2023-07-31T14:58:44;18.70;99.90
18781;DHT22;9519;51.890;8.970;2023-07-31T15:03:46;18.70;99.90
18781;DHT22;9519;51.890;8.970;2023-07-31T15:08:49;18.70;99.90
18781;DHT22;9519;51.890;8.970;2023-07-31T15:13:52;18.70;99.90
18781;DHT22;9519;51.890;8.970;2023-07-31T15:18:54;18.70;99.90
18781;DHT22;9519;51.890;8.970;2023-07-31T15:23:57;18.80;99.90
18781;DHT22;9519;51.890;8.970;2023-07-31T15:29:02;18.80;99.90
18781;DHT22;9519;51.890;8.970;2023-07-31T15:34:09;18.80;99.90
18781;DHT22;9519;51.890;8.970;2023-07-31T15:39:12;18.70;99.90
18781;DHT22;9519;51.890;8.970;2023-07-31T15:44:15;18.80;99.90
18781;DHT22;9519;51.890;8.970;2023-07-31T15:49:17;18.80;99.90
18781;DHT22;9519;51.890;8.970;2023-07-31T15:54:20;18.80;99.90
18781;DHT22;9519;51.890;8.970;2023-07-31T15:59:23;18.90;99.90
18781;DHT22;9519;51.890;8.970;2023-07-31T16:04:25;18.90;99.90
18781;DHT22;9519;51.890;8.970;2023-07-31T16:09:29;18.90;99.90
18781;DHT22;9519;51.890;8.970;2023-07-31T16:14:31;18.90;99.90
18781;DHT22;9519;51.890;8.970;2023-07-31T16:19:33;18.90;99.90
18781;DHT22;9519;51.890;8.970;2023-07-31T16:24:36;18.90;99.90
18781;DHT22;9519;51.890;8.970;2023-07-31T16:29:39;19.00;99.90
18781;DHT22;9519;51.890;8.970;2023-07-31T16:34:41;18.90;99.90
18781;DHT22;9519;51.890;8.970;2023-07-31T16:39:45;19.00;99.90
18781;DHT22;9519;51.890;8.970;2023-07-31T16:44:49;19.00;99.90
18781;DHT22;9519;51.890;8.970;2023-07-31T16:49:51;19.00;99.90
18781;DHT22;9519;51.890;8.970;2023-07-31T16:54:54;19.00;99.90
18781;DHT22;9519;51.890;8.970;2023-07-31T16:59:56;19.00;99.90
18781;DHT22;9519;51.890;8.970;2023-07-31T17:04:59;19.00;99.90
18781;DHT22;9519;51.890;8.970;2023-07-31T17:16:19;19.10;99.90
18781;DHT22;9519;51.890;8.970;2023-07-31T17:21:22;19.00;99.90
18781;DHT22;9519;51.890;8.970;2023-07-31T17:26:24;19.10;99.90
18781;DHT22;9519;51.890;8.970;2023-07-31T17:31:27;19.10;99.90
18781;DHT22;9519;51.890;8.970;2023-07-31T17:36:30;19.10;99.90
18781;DHT22;9519;51.890;8.970;2023-07-31T17:41:34;19.20;99.90
18781;DHT22;9519;51.890;8.970;2023-07-31T17:46:37;19.10;99.90
18781;DHT22;9519;51.890;8.970;2023-07-31T17:51:39;19.10;99.90
18781;DHT22;9519;51.890;8.970;2023-07-31T17:56:42;19.10;99.90
18781;DHT22;9519;51.890;8.970;2023-07-31T18:01:46;19.10;99.90
18781;DHT22;9519;51.890;8.970;2023-07-31T18:06:48;19.00;99.90
18781;DHT22;9519;51.890;8.970;2023-07-31T18:11:50;19.10;99.90
18781;DHT22;9519;51.890;8.970;2023-07-31T18:16:54;19.00;99.90
18781;DHT22;9519;51.890;8.970;2023-07-31T18:21:56;19.10;99.90
18781;DHT22;9519;51.890;8.970;2023-07-31T18:26:59;19.00;99.90
18781;DHT22;9519;51.890;8.970;2023-07-31T18:32:03;19.00;99.90
18781;DHT22;9519;51.890;8.970;2023-07-31T18:37:06;18.90;99.90
18781;DHT22;9519;51.890;8.970;2023-07-31T18:42:08;18.80;99.90
18781;DHT22;9519;51.890;8.970;2023-07-31T18:47:12;18.70;99.90
18781;DHT22;9519;51.890;8.970;2023-07-31T18:52:14;18.60;99.90
18781;DHT22;9519;51.890;8.970;2023-07-31T18:57:16;18.60;99.90
18781;DHT22;9519;51.890;8.970;2023-07-31T19:02:19;18.50;99.90
18781;DHT22;9519;51.890;8.970;2023-07-31T19:07:22;18.50;99.90
18781;DHT22;9519;51.890;8.970;2023-07-31T19:12:24;18.50;99.90
18781;DHT22;9519;51.890;8.970;2023-07-31T19:17:27;18.40;99.90
18781;DHT22;9519;51.890;8.970;2023-07-31T19:22:29;18.40;99.90
18781;DHT22;9519;51.890;8.970;2023-07-31T19:27:32;18.40;99.90
18781;DHT22;9519;51.890;8.970;2023-07-31T19:32:37;18.30;99.90
18781;DHT22;9519;51.890;8.970;2023-07-31T19:37:39;18.30;99.90
18781;DHT22;9519;51.890;8.970;2023-07-31T19:42:41;18.20;99.90
18781;DHT22;9519;51.890;8.970;2023-07-31T19:47:44;18.20;99.90
18781;DHT22;9519;51.890;8.970;2023-07-31T19:52:46;18.10;99.90
18781;DHT22;9519;51.890;8.970;2023-07-31T19:57:49;18.00;99.90
18781;DHT22;9519;51.890;8.970;2023-07-31T20:02:52;18.00;99.90
18781;DHT22;9519;51.890;8.970;2023-07-31T20:07:54;18.00;99.90
18781;DHT22;9519;51.890;8.970;2023-07-31T20:12:57;18.00;99.90
18781;DHT22;9519;51.890;8.970;2023-07-31T20:18:01;17.90;99.90
18781;DHT22;9519;51.890;8.970;2023-07-31T20:23:03;17.90;99.90
18781;DHT22;9519;51.890;8.970;2023-07-31T20:28:06;17.80;99.90
18781;DHT22;9519;51.890;8.970;2023-07-31T20:33:09;17.80;99.90
18781;DHT22;9519;51.890;8.970;2023-07-31T20:38:12;17.70;99.90
18781;DHT22;9519;51.890;8.970;2023-07-31T20:43:14;17.70;99.90
18781;DHT22;9519;51.890;8.970;2023-07-31T20:48:20;17.70;99.90
18781;DHT22;9519;51.890;8.970;2023-07-31T20:53:22;17.60;99.90
18781;DHT22;9519;51.890;8.970;2023-07-31T20:58:24;17.60;99.90
18781;DHT22;9519;51.890;8.970;2023-07-31T21:03:27;17.50;99.90
18781;DHT22;9519;51.890;8.970;2023-07-31T21:08:32;17.50;99.90
18781;DHT22;9519;51.890;8.970;2023-07-31T21:13:34;17.50;99.90
18781;DHT22;9519;51.890;8.970;2023-07-31T21:18:37;17.50;99.90
18781;DHT22;9519;51.890;8.970;2023-07-31T21:23:40;17.50;99.90
18781;DHT22;9519;51.890;8.970;2023-07-31T21:28:42;17.50;99.90
18781;DHT22;9519;51.890;8.970;2023-07-31T21:33:45;17.40;99.90
18781;DHT22;9519;51.890;8.970;2023-07-31T21:38:47;17.40;99.90
18781;DHT22;9519;51.890;8.970;2023-07-31T21:43:49;17.40;99.90
18781;DHT22;9519;51.890;8.970;2023-07-31T21:48:53;17.40;99.90
18781;DHT22;9519;51.890;8.970;2023-07-31T21:53:55;17.40;99.90
18781;DHT22;9519;51.890;8.970;2023-07-31T21:58:57;17.40;99.90
18781;DHT22;9519;51.890;8.970;2023-07-31T22:04:01;17.40;99.90
18781;DHT22;9519;51.890;8.970;2023-07-31T22:09:03;17.40;99.90
18781;DHT22;9519;51.890;8.970;2023-07-31T22:14:06;17.40;99.90
18781;DHT22;9519;51.890;8.970;2023-07-31T22:19:09;17.40;99.90
18781;DHT22;9519;51.890;8.970;2023-07-31T22:24:11;17.40;99.90
18781;DHT22;9519;51.890;8.970;2023-07-31T22:29:14;17.40;99.90
18781;DHT22;9519;51.890;8.970;2023-07-31T22:34:17;17.40;99.90
18781;DHT22;9519;51.890;8.970;2023-07-31T22:39:19;17.50;99.90
18781;DHT22;9519;51.890;8.970;2023-07-31T22:44:21;17.50;99.90
18781;DHT22;9519;51.890;8.970;2023-07-31T22:49:25;17.50;99.90
18781;DHT22;9519;51.890;8.970;2023-07-31T22:54:27;17.50;99.90
18781;DHT22;9519;51.890;8.970;2023-07-31T22:59:29;17.50;99.90
18781;DHT22;9519;51.890;8.970;2023-07-31T23:04:32;17.50;99.90
18781;DHT22;9519;51.890;8.970;2023-07-31T23:09:34;17.50;99.90
18781;DHT22;9519;51.890;8.970;2023-07-31T23:14:37;17.50;99.90
18781;DHT22;9519;51.890;8.970;2023-07-31T23:19:40;17.50;99.90
18781;DHT22;9519;51.890;8.970;2023-07-31T23:24:42;17.50;99.90
18781;DHT22;9519;51.890;8.970;2023-07-31T23:29:44;17.40;99.90
18781;DHT22;9519;51.890;8.970;2023-07-31T23:34:48;17.40;99.90
18781;DHT22;9519;51.890;8.970;2023-07-31T23:39:50;17.40;99.90
18781;DHT22;9519;51.890;8.970;2023-07-31T23:44:53;17.40;99.90
18781;DHT22;9519;51.890;8.970;2023-07-31T23:49:56;17.40;99.90
18781;DHT22;9519;51.890;8.970;2023-07-31T23:54:58;17.40;99.90
